sensor_id;sensor_type;location;lat;lon;timestamp;P1;durP1;ratioP1;P2;durP2;ratioP2
1360;SDS011;674;45.552;-122.600;2023-05-07T00:00:16;5.70;;;2.80;;
1360;SDS011;674;45.552;-122.600;2023-05-07T00:02:46;3.00;;;2.40;;
1360;SDS011;674;45.552;-122.600;2023-05-07T00:05:15;2.50;;;1.83;;
1360;SDS011;674;45.552;-122.600;2023-05-07T00:07:43;6.70;;;1.90;;
1360;SDS011;674;45.552;-122.600;2023-05-07T00:10:12;3.90;;;2.27;;
1360;SDS011;674;45.552;-122.600;2023-05-07T00:12:40;3.40;;;1.73;;
1360;SDS011;674;45.552;-122.600;2023-05-07T00:15:09;2.83;;;2.00;;
1360;SDS011;674;45.552;-122.600;2023-05-07T00:17:38;3.60;;;2.00;;
1360;SDS011;674;45.552;-122.600;2023-05-07T00:20:07;4.30;;;2.17;;
1360;SDS011;674;45.552;-122.600;2023-05-07T00:22:36;5.00;;;2.00;;
1360;SDS011;674;45.552;-122.600;2023-05-07T00:25:04;2.30;;;1.63;;
1360;SDS011;674;45.552;-122.600;2023-05-07T00:27:33;3.00;;;1.70;;
1360;SDS011;674;45.552;-122.600;2023-05-07T00:30:02;2.50;;;1.80;;
1360;SDS011;674;45.552;-122.600;2023-05-07T00:32:30;2.43;;;1.60;;
1360;SDS011;674;45.552;-122.600;2023-05-07T00:34:58;2.50;;;1.90;;
1360;SDS011;674;45.552;-122.600;2023-05-07T00:37:27;2.73;;;1.77;;
1360;SDS011;674;45.552;-122.600;2023-05-07T00:39:55;4.00;;;1.70;;
1360;SDS011;674;45.552;-122.600;2023-05-07T00:42:24;5.27;;;2.30;;
1360;SDS011;674;45.552;-122.600;2023-05-07T00:44:52;2.57;;;1.63;;
1360;SDS011;674;45.552;-122.600;2023-05-07T00:47:21;3.00;;;1.97;;
1360;SDS011;674;45.552;-122.600;2023-05-07T00:49:49;3.43;;;1.80;;
1360;SDS011;674;45.552;-122.600;2023-05-07T00:52:18;3.47;;;1.90;;
1360;SDS011;674;45.552;-122.600;2023-05-07T00:54:49;3.10;;;2.00;;
1360;SDS011;674;45.552;-122.600;2023-05-07T00:57:17;3.03;;;1.70;;
1360;SDS011;674;45.552;-122.600;2023-05-07T00:59:46;2.40;;;1.83;;
1360;SDS011;674;45.552;-122.600;2023-05-07T01:02:15;2.70;;;1.57;;
1360;SDS011;674;45.552;-122.600;2023-05-07T01:04:44;4.10;;;2.23;;
1360;SDS011;674;45.552;-122.600;2023-05-07T01:07:13;3.53;;;1.80;;
1360;SDS011;674;45.552;-122.600;2023-05-07T01:09:42;2.83;;;1.93;;
1360;SDS011;674;45.552;-122.600;2023-05-07T01:12:10;2.87;;;1.90;;
1360;SDS011;674;45.552;-122.600;2023-05-07T01:14:39;2.80;;;1.90;;
1360;SDS011;674;45.552;-122.600;2023-05-07T01:17:07;2.87;;;2.00;;
1360;SDS011;674;45.552;-122.600;2023-05-07T01:19:36;2.70;;;2.00;;
1360;SDS011;674;45.552;-122.600;2023-05-07T01:22:07;3.00;;;2.10;;
1360;SDS011;674;45.552;-122.600;2023-05-07T01:24:37;3.20;;;2.27;;
1360;SDS011;674;45.552;-122.600;2023-05-07T01:27:06;4.27;;;2.40;;
1360;SDS011;674;45.552;-122.600;2023-05-07T01:29:34;6.23;;;2.73;;
1360;SDS011;674;45.552;-122.600;2023-05-07T01:32:03;7.83;;;2.63;;
1360;SDS011;674;45.552;-122.600;2023-05-07T01:34:32;4.07;;;2.60;;
1360;SDS011;674;45.552;-122.600;2023-05-07T01:37:03;5.70;;;3.33;;
1360;SDS011;674;45.552;-122.600;2023-05-07T01:39:32;4.83;;;2.90;;
1360;SDS011;674;45.552;-122.600;2023-05-07T01:42:00;4.83;;;4.10;;
1360;SDS011;674;45.552;-122.600;2023-05-07T01:44:29;6.60;;;4.20;;
1360;SDS011;674;45.552;-122.600;2023-05-07T01:46:58;5.00;;;2.90;;
1360;SDS011;674;45.552;-122.600;2023-05-07T01:49:27;2.70;;;1.70;;
1360;SDS011;674;45.552;-122.600;2023-05-07T01:51:55;3.07;;;1.90;;
1360;SDS011;674;45.552;-122.600;2023-05-07T01:54:27;5.00;;;1.63;;
1360;SDS011;674;45.552;-122.600;2023-05-07T01:56:56;2.23;;;1.50;;
1360;SDS011;674;45.552;-122.600;2023-05-07T01:59:24;4.43;;;1.70;;
1360;SDS011;674;45.552;-122.600;2023-05-07T02:01:53;3.03;;;2.00;;
1360;SDS011;674;45.552;-122.600;2023-05-07T02:04:22;5.23;;;2.30;;
1360;SDS011;674;45.552;-122.600;2023-05-07T02:06:50;3.60;;;2.77;;
1360;SDS011;674;45.552;-122.600;2023-05-07T02:09:19;3.40;;;2.40;;
1360;SDS011;674;45.552;-122.600;2023-05-07T02:11:48;4.37;;;2.57;;
1360;SDS011;674;45.552;-122.600;2023-05-07T02:14:16;3.10;;;2.13;;
1360;SDS011;674;45.552;-122.600;2023-05-07T02:16:52;5.33;;;2.07;;
1360;SDS011;674;45.552;-122.600;2023-05-07T02:19:21;8.23;;;2.50;;
1360;SDS011;674;45.552;-122.600;2023-05-07T02:21:53;3.60;;;2.00;;
1360;SDS011;674;45.552;-122.600;2023-05-07T02:24:25;6.03;;;2.63;;
1360;SDS011;674;45.552;-122.600;2023-05-07T02:26:53;3.77;;;2.57;;
1360;SDS011;674;45.552;-122.600;2023-05-07T02:29:22;7.00;;;2.60;;
1360;SDS011;674;45.552;-122.600;2023-05-07T02:31:51;4.10;;;2.60;;
1360;SDS011;674;45.552;-122.600;2023-05-07T02:34:20;3.30;;;2.20;;
1360;SDS011;674;45.552;-122.600;2023-05-07T02:36:51;2.80;;;2.07;;
1360;SDS011;674;45.552;-122.600;2023-05-07T02:39:20;4.17;;;2.60;;
1360;SDS011;674;45.552;-122.600;2023-05-07T02:41:49;3.67;;;2.17;;
1360;SDS011;674;45.552;-122.600;2023-05-07T02:44:17;4.57;;;2.80;;
1360;SDS011;674;45.552;-122.600;2023-05-07T02:46:45;4.53;;;2.30;;
1360;SDS011;674;45.552;-122.600;2023-05-07T02:49:14;3.67;;;2.53;;
1360;SDS011;674;45.552;-122.600;2023-05-07T02:51:43;4.03;;;2.90;;
1360;SDS011;674;45.552;-122.600;2023-05-07T02:54:11;5.93;;;2.90;;
1360;SDS011;674;45.552;-122.600;2023-05-07T02:56:40;4.77;;;2.90;;
1360;SDS011;674;45.552;-122.600;2023-05-07T02:59:08;3.30;;;2.50;;
1360;SDS011;674;45.552;-122.600;2023-05-07T03:01:37;3.90;;;2.17;;
1360;SDS011;674;45.552;-122.600;2023-05-07T03:04:06;3.73;;;2.40;;
1360;SDS011;674;45.552;-122.600;2023-05-07T03:06:34;3.50;;;2.40;;
1360;SDS011;674;45.552;-122.600;2023-05-07T03:09:04;4.00;;;2.53;;
1360;SDS011;674;45.552;-122.600;2023-05-07T03:11:32;3.37;;;2.30;;
1360;SDS011;674;45.552;-122.600;2023-05-07T03:14:02;3.27;;;1.93;;
1360;SDS011;674;45.552;-122.600;2023-05-07T03:16:31;2.80;;;2.03;;
1360;SDS011;674;45.552;-122.600;2023-05-07T03:18:59;4.00;;;2.30;;
1360;SDS011;674;45.552;-122.600;2023-05-07T03:21:28;3.67;;;2.30;;
1360;SDS011;674;45.552;-122.600;2023-05-07T03:23:57;3.53;;;2.10;;
1360;SDS011;674;45.552;-122.600;2023-05-07T03:26:26;4.13;;;2.50;;
1360;SDS011;674;45.552;-122.600;2023-05-07T03:28:55;3.40;;;1.90;;
1360;SDS011;674;45.552;-122.600;2023-05-07T03:31:23;4.93;;;2.30;;
1360;SDS011;674;45.552;-122.600;2023-05-07T03:33:56;5.67;;;2.30;;
1360;SDS011;674;45.552;-122.600;2023-05-07T03:36:25;3.30;;;1.83;;
1360;SDS011;674;45.552;-122.600;2023-05-07T03:38:56;4.70;;;2.40;;
1360;SDS011;674;45.552;-122.600;2023-05-07T03:41:24;3.70;;;2.80;;
1360;SDS011;674;45.552;-122.600;2023-05-07T03:43:53;3.50;;;2.60;;
1360;SDS011;674;45.552;-122.600;2023-05-07T03:46:21;2.83;;;2.17;;
1360;SDS011;674;45.552;-122.600;2023-05-07T03:48:50;3.30;;;2.20;;
1360;SDS011;674;45.552;-122.600;2023-05-07T03:51:18;3.43;;;2.07;;
1360;SDS011;674;45.552;-122.600;2023-05-07T03:53:47;3.67;;;2.27;;
1360;SDS011;674;45.552;-122.600;2023-05-07T03:56:15;2.90;;;2.10;;
1360;SDS011;674;45.552;-122.600;2023-05-07T03:58:45;3.23;;;2.60;;
1360;SDS011;674;45.552;-122.600;2023-05-07T04:01:13;3.23;;;2.27;;
1360;SDS011;674;45.552;-122.600;2023-05-07T04:03:42;3.40;;;2.40;;
1360;SDS011;674;45.552;-122.600;2023-05-07T04:06:11;4.57;;;2.50;;
1360;SDS011;674;45.552;-122.600;2023-05-07T04:08:39;6.33;;;3.60;;
1360;SDS011;674;45.552;-122.600;2023-05-07T04:11:08;3.87;;;2.77;;
1360;SDS011;674;45.552;-122.600;2023-05-07T04:13:37;4.13;;;2.83;;
1360;SDS011;674;45.552;-122.600;2023-05-07T04:16:05;4.33;;;1.73;;
1360;SDS011;674;45.552;-122.600;2023-05-07T04:18:34;8.90;;;2.37;;
1360;SDS011;674;45.552;-122.600;2023-05-07T04:21:02;3.97;;;2.40;;
1360;SDS011;674;45.552;-122.600;2023-05-07T04:23:31;5.23;;;2.33;;
1360;SDS011;674;45.552;-122.600;2023-05-07T04:25:59;5.20;;;3.30;;
1360;SDS011;674;45.552;-122.600;2023-05-07T04:28:28;4.13;;;2.90;;
1360;SDS011;674;45.552;-122.600;2023-05-07T04:30:56;4.30;;;2.73;;
1360;SDS011;674;45.552;-122.600;2023-05-07T04:33:25;3.57;;;2.10;;
1360;SDS011;674;45.552;-122.600;2023-05-07T04:35:53;3.60;;;2.07;;
1360;SDS011;674;45.552;-122.600;2023-05-07T04:38:21;2.80;;;1.60;;
1360;SDS011;674;45.552;-122.600;2023-05-07T04:40:50;2.70;;;1.70;;
1360;SDS011;674;45.552;-122.600;2023-05-07T04:43:19;2.70;;;1.90;;
1360;SDS011;674;45.552;-122.600;2023-05-07T04:45:47;4.47;;;1.50;;
1360;SDS011;674;45.552;-122.600;2023-05-07T04:48:17;3.30;;;1.87;;
1360;SDS011;674;45.552;-122.600;2023-05-07T04:50:48;2.90;;;1.40;;
1360;SDS011;674;45.552;-122.600;2023-05-07T04:53:17;3.10;;;1.77;;
1360;SDS011;674;45.552;-122.600;2023-05-07T04:55:45;3.03;;;1.83;;
1360;SDS011;674;45.552;-122.600;2023-05-07T04:58:14;3.13;;;1.60;;
1360;SDS011;674;45.552;-122.600;2023-05-07T05:00:42;3.30;;;1.53;;
1360;SDS011;674;45.552;-122.600;2023-05-07T05:03:11;3.77;;;1.60;;
1360;SDS011;674;45.552;-122.600;2023-05-07T05:05:39;3.73;;;1.80;;
1360;SDS011;674;45.552;-122.600;2023-05-07T05:08:08;2.50;;;1.30;;
1360;SDS011;674;45.552;-122.600;2023-05-07T05:10:36;3.93;;;1.53;;
1360;SDS011;674;45.552;-122.600;2023-05-07T05:13:05;3.13;;;1.70;;
1360;SDS011;674;45.552;-122.600;2023-05-07T05:15:33;3.63;;;1.80;;
1360;SDS011;674;45.552;-122.600;2023-05-07T05:18:01;3.53;;;1.30;;
1360;SDS011;674;45.552;-122.600;2023-05-07T05:20:30;4.30;;;1.60;;
1360;SDS011;674;45.552;-122.600;2023-05-07T05:22:58;2.63;;;1.50;;
1360;SDS011;674;45.552;-122.600;2023-05-07T05:25:27;3.30;;;1.60;;
1360;SDS011;674;45.552;-122.600;2023-05-07T05:27:55;2.80;;;1.37;;
1360;SDS011;674;45.552;-122.600;2023-05-07T05:30:24;3.03;;;1.83;;
1360;SDS011;674;45.552;-122.600;2023-05-07T05:32:52;2.70;;;1.70;;
1360;SDS011;674;45.552;-122.600;2023-05-07T05:35:20;3.03;;;1.73;;
1360;SDS011;674;45.552;-122.600;2023-05-07T05:37:49;3.80;;;1.60;;
1360;SDS011;674;45.552;-122.600;2023-05-07T05:40:17;2.40;;;1.60;;
1360;SDS011;674;45.552;-122.600;2023-05-07T05:42:45;6.33;;;2.33;;
1360;SDS011;674;45.552;-122.600;2023-05-07T05:45:14;5.60;;;4.00;;
1360;SDS011;674;45.552;-122.600;2023-05-07T05:47:42;4.50;;;3.83;;
1360;SDS011;674;45.552;-122.600;2023-05-07T05:50:10;4.13;;;3.27;;
1360;SDS011;674;45.552;-122.600;2023-05-07T05:52:39;5.00;;;3.47;;
1360;SDS011;674;45.552;-122.600;2023-05-07T05:55:08;5.40;;;4.10;;
1360;SDS011;674;45.552;-122.600;2023-05-07T05:57:36;5.43;;;4.33;;
1360;SDS011;674;45.552;-122.600;2023-05-07T06:00:05;8.03;;;4.43;;
1360;SDS011;674;45.552;-122.600;2023-05-07T06:02:35;4.70;;;3.60;;
1360;SDS011;674;45.552;-122.600;2023-05-07T06:05:04;5.50;;;3.80;;
1360;SDS011;674;45.552;-122.600;2023-05-07T06:07:33;6.67;;;4.47;;
1360;SDS011;674;45.552;-122.600;2023-05-07T06:10:02;7.20;;;4.23;;
1360;SDS011;674;45.552;-122.600;2023-05-07T06:12:30;5.53;;;3.93;;
1360;SDS011;674;45.552;-122.600;2023-05-07T06:14:59;5.23;;;4.70;;
1360;SDS011;674;45.552;-122.600;2023-05-07T06:17:28;6.07;;;4.17;;
1360;SDS011;674;45.552;-122.600;2023-05-07T06:19:56;4.63;;;4.03;;
1360;SDS011;674;45.552;-122.600;2023-05-07T06:22:25;5.10;;;4.10;;
1360;SDS011;674;45.552;-122.600;2023-05-07T06:24:53;6.47;;;4.43;;
1360;SDS011;674;45.552;-122.600;2023-05-07T06:27:21;4.27;;;3.83;;
1360;SDS011;674;45.552;-122.600;2023-05-07T06:29:50;3.53;;;3.00;;
1360;SDS011;674;45.552;-122.600;2023-05-07T06:32:18;2.80;;;2.30;;
1360;SDS011;674;45.552;-122.600;2023-05-07T06:34:47;3.57;;;2.10;;
1360;SDS011;674;45.552;-122.600;2023-05-07T06:37:15;4.20;;;2.23;;
1360;SDS011;674;45.552;-122.600;2023-05-07T06:39:43;3.90;;;3.00;;
1360;SDS011;674;45.552;-122.600;2023-05-07T06:42:12;3.90;;;3.50;;
1360;SDS011;674;45.552;-122.600;2023-05-07T06:44:40;5.13;;;4.53;;
1360;SDS011;674;45.552;-122.600;2023-05-07T06:47:08;14.93;;;7.87;;
1360;SDS011;674;45.552;-122.600;2023-05-07T06:49:37;17.30;;;14.10;;
1360;SDS011;674;45.552;-122.600;2023-05-07T06:52:05;16.27;;;12.13;;
1360;SDS011;674;45.552;-122.600;2023-05-07T06:54:33;7.30;;;6.23;;
1360;SDS011;674;45.552;-122.600;2023-05-07T06:57:02;6.40;;;5.07;;
1360;SDS011;674;45.552;-122.600;2023-05-07T06:59:30;4.00;;;2.70;;
1360;SDS011;674;45.552;-122.600;2023-05-07T07:01:58;3.53;;;2.23;;
1360;SDS011;674;45.552;-122.600;2023-05-07T07:04:27;3.50;;;2.20;;
1360;SDS011;674;45.552;-122.600;2023-05-07T07:06:55;3.23;;;2.37;;
1360;SDS011;674;45.552;-122.600;2023-05-07T07:09:24;2.33;;;1.70;;
1360;SDS011;674;45.552;-122.600;2023-05-07T07:11:52;3.87;;;1.77;;
1360;SDS011;674;45.552;-122.600;2023-05-07T07:14:20;3.43;;;1.70;;
1360;SDS011;674;45.552;-122.600;2023-05-07T07:16:49;5.13;;;1.77;;
1360;SDS011;674;45.552;-122.600;2023-05-07T07:19:18;2.30;;;1.50;;
1360;SDS011;674;45.552;-122.600;2023-05-07T07:21:47;2.00;;;1.27;;
1360;SDS011;674;45.552;-122.600;2023-05-07T07:24:15;2.20;;;1.10;;
1360;SDS011;674;45.552;-122.600;2023-05-07T07:26:48;3.40;;;2.20;;
1360;SDS011;674;45.552;-122.600;2023-05-07T07:29:16;2.23;;;1.10;;
1360;SDS011;674;45.552;-122.600;2023-05-07T07:31:45;3.70;;;1.30;;
1360;SDS011;674;45.552;-122.600;2023-05-07T07:34:15;2.73;;;1.33;;
1360;SDS011;674;45.552;-122.600;2023-05-07T07:36:44;3.60;;;1.77;;
1360;SDS011;674;45.552;-122.600;2023-05-07T07:39:12;3.60;;;1.57;;
1360;SDS011;674;45.552;-122.600;2023-05-07T07:41:41;4.57;;;1.40;;
1360;SDS011;674;45.552;-122.600;2023-05-07T07:44:09;4.03;;;2.10;;
1360;SDS011;674;45.552;-122.600;2023-05-07T07:46:41;4.33;;;2.73;;
1360;SDS011;674;45.552;-122.600;2023-05-07T07:49:10;5.20;;;4.37;;
1360;SDS011;674;45.552;-122.600;2023-05-07T07:51:38;4.50;;;2.67;;
1360;SDS011;674;45.552;-122.600;2023-05-07T07:54:07;3.03;;;2.13;;
1360;SDS011;674;45.552;-122.600;2023-05-07T07:56:35;2.10;;;1.50;;
1360;SDS011;674;45.552;-122.600;2023-05-07T07:59:03;4.80;;;1.43;;
1360;SDS011;674;45.552;-122.600;2023-05-07T08:01:32;4.30;;;1.20;;
1360;SDS011;674;45.552;-122.600;2023-05-07T08:04:00;2.60;;;1.20;;
1360;SDS011;674;45.552;-122.600;2023-05-07T08:06:30;2.40;;;1.30;;
1360;SDS011;674;45.552;-122.600;2023-05-07T08:08:58;2.43;;;1.27;;
1360;SDS011;674;45.552;-122.600;2023-05-07T08:11:27;3.70;;;1.57;;
1360;SDS011;674;45.552;-122.600;2023-05-07T08:13:55;2.43;;;1.30;;
1360;SDS011;674;45.552;-122.600;2023-05-07T08:16:24;3.33;;;1.20;;
1360;SDS011;674;45.552;-122.600;2023-05-07T08:18:52;3.53;;;0.90;;
1360;SDS011;674;45.552;-122.600;2023-05-07T08:21:21;2.60;;;1.30;;
1360;SDS011;674;45.552;-122.600;2023-05-07T08:23:50;4.30;;;1.20;;
1360;SDS011;674;45.552;-122.600;2023-05-07T08:26:18;4.27;;;1.20;;
1360;SDS011;674;45.552;-122.600;2023-05-07T08:28:47;4.33;;;1.67;;
1360;SDS011;674;45.552;-122.600;2023-05-07T08:31:16;2.10;;;1.10;;
1360;SDS011;674;45.552;-122.600;2023-05-07T08:33:44;2.97;;;1.40;;
1360;SDS011;674;45.552;-122.600;2023-05-07T08:36:12;2.73;;;1.20;;
1360;SDS011;674;45.552;-122.600;2023-05-07T08:38:41;3.23;;;1.23;;
1360;SDS011;674;45.552;-122.600;2023-05-07T08:41:11;3.40;;;1.67;;
1360;SDS011;674;45.552;-122.600;2023-05-07T08:43:41;3.23;;;1.30;;
1360;SDS011;674;45.552;-122.600;2023-05-07T08:46:13;2.57;;;1.60;;
1360;SDS011;674;45.552;-122.600;2023-05-07T08:48:49;3.30;;;1.77;;
1360;SDS011;674;45.552;-122.600;2023-05-07T08:51:20;2.97;;;1.60;;
1360;SDS011;674;45.552;-122.600;2023-05-07T08:53:49;4.07;;;1.93;;
1360;SDS011;674;45.552;-122.600;2023-05-07T08:56:17;3.47;;;1.67;;
1360;SDS011;674;45.552;-122.600;2023-05-07T08:58:48;5.00;;;1.63;;
1360;SDS011;674;45.552;-122.600;2023-05-07T09:01:16;4.80;;;1.80;;
1360;SDS011;674;45.552;-122.600;2023-05-07T09:03:45;4.70;;;1.63;;
1360;SDS011;674;45.552;-122.600;2023-05-07T09:06:14;2.70;;;1.40;;
1360;SDS011;674;45.552;-122.600;2023-05-07T09:08:50;5.50;;;1.77;;
1360;SDS011;674;45.552;-122.600;2023-05-07T09:11:23;5.17;;;1.67;;
1360;SDS011;674;45.552;-122.600;2023-05-07T09:13:55;3.40;;;1.87;;
1360;SDS011;674;45.552;-122.600;2023-05-07T09:16:29;3.47;;;1.70;;
1360;SDS011;674;45.552;-122.600;2023-05-07T09:18:59;2.60;;;1.70;;
1360;SDS011;674;45.552;-122.600;2023-05-07T09:21:28;6.00;;;1.57;;
1360;SDS011;674;45.552;-122.600;2023-05-07T09:23:57;3.50;;;1.53;;
1360;SDS011;674;45.552;-122.600;2023-05-07T09:26:25;9.47;;;2.87;;
1360;SDS011;674;45.552;-122.600;2023-05-07T09:28:55;2.67;;;1.50;;
1360;SDS011;674;45.552;-122.600;2023-05-07T09:31:23;3.87;;;1.80;;
1360;SDS011;674;45.552;-122.600;2023-05-07T09:33:53;3.00;;;1.70;;
1360;SDS011;674;45.552;-122.600;2023-05-07T09:36:23;3.53;;;1.87;;
1360;SDS011;674;45.552;-122.600;2023-05-07T09:38:51;4.03;;;1.70;;
1360;SDS011;674;45.552;-122.600;2023-05-07T09:41:19;3.17;;;1.70;;
1360;SDS011;674;45.552;-122.600;2023-05-07T09:43:48;2.80;;;1.50;;
1360;SDS011;674;45.552;-122.600;2023-05-07T09:46:27;5.83;;;1.83;;
1360;SDS011;674;45.552;-122.600;2023-05-07T09:48:57;3.30;;;1.93;;
1360;SDS011;674;45.552;-122.600;2023-05-07T09:51:29;4.53;;;1.90;;
1360;SDS011;674;45.552;-122.600;2023-05-07T09:54:09;3.80;;;1.70;;
1360;SDS011;674;45.552;-122.600;2023-05-07T09:56:38;3.70;;;2.03;;
1360;SDS011;674;45.552;-122.600;2023-05-07T09:59:10;7.87;;;2.00;;
1360;SDS011;674;45.552;-122.600;2023-05-07T10:01:41;9.07;;;2.27;;
1360;SDS011;674;45.552;-122.600;2023-05-07T10:04:11;3.80;;;1.90;;
1360;SDS011;674;45.552;-122.600;2023-05-07T10:06:40;3.47;;;1.50;;
1360;SDS011;674;45.552;-122.600;2023-05-07T10:09:09;2.60;;;1.60;;
1360;SDS011;674;45.552;-122.600;2023-05-07T10:11:38;3.90;;;2.10;;
1360;SDS011;674;45.552;-122.600;2023-05-07T10:14:07;4.00;;;1.93;;
1360;SDS011;674;45.552;-122.600;2023-05-07T10:16:36;4.10;;;1.87;;
1360;SDS011;674;45.552;-122.600;2023-05-07T10:19:06;10.20;;;3.10;;
1360;SDS011;674;45.552;-122.600;2023-05-07T10:21:39;3.17;;;1.90;;
1360;SDS011;674;45.552;-122.600;2023-05-07T10:24:22;5.90;;;2.03;;
1360;SDS011;674;45.552;-122.600;2023-05-07T10:26:54;5.70;;;1.93;;
1360;SDS011;674;45.552;-122.600;2023-05-07T10:29:33;5.63;;;2.27;;
1360;SDS011;674;45.552;-122.600;2023-05-07T10:32:17;3.70;;;1.57;;
1360;SDS011;674;45.552;-122.600;2023-05-07T10:34:58;7.50;;;2.00;;
1360;SDS011;674;45.552;-122.600;2023-05-07T10:37:30;5.40;;;2.10;;
1360;SDS011;674;45.552;-122.600;2023-05-07T10:39:59;7.43;;;1.77;;
1360;SDS011;674;45.552;-122.600;2023-05-07T10:42:27;4.87;;;1.70;;
1360;SDS011;674;45.552;-122.600;2023-05-07T10:44:56;2.93;;;1.43;;
1360;SDS011;674;45.552;-122.600;2023-05-07T10:47:24;5.10;;;2.20;;
1360;SDS011;674;45.552;-122.600;2023-05-07T10:52:33;4.97;;;2.43;;
1360;SDS011;674;45.552;-122.600;2023-05-07T10:57:46;3.43;;;2.23;;
1360;SDS011;674;45.552;-122.600;2023-05-07T11:03:05;4.27;;;2.43;;
1360;SDS011;674;45.552;-122.600;2023-05-07T11:05:34;4.30;;;2.57;;
1360;SDS011;674;45.552;-122.600;2023-05-07T11:08:04;4.43;;;2.37;;
1360;SDS011;674;45.552;-122.600;2023-05-07T11:10:52;4.17;;;2.30;;
1360;SDS011;674;45.552;-122.600;2023-05-07T11:13:41;4.87;;;2.50;;
1360;SDS011;674;45.552;-122.600;2023-05-07T11:16:20;7.13;;;2.33;;
1360;SDS011;674;45.552;-122.600;2023-05-07T11:18:51;3.47;;;2.20;;
1360;SDS011;674;45.552;-122.600;2023-05-07T11:24:03;5.30;;;2.83;;
1360;SDS011;674;45.552;-122.600;2023-05-07T11:26:54;3.87;;;2.70;;
1360;SDS011;674;45.552;-122.600;2023-05-07T11:29:21;6.40;;;2.63;;
1360;SDS011;674;45.552;-122.600;2023-05-07T11:31:53;5.70;;;3.00;;
1360;SDS011;674;45.552;-122.600;2023-05-07T11:34:23;8.77;;;2.87;;
1360;SDS011;674;45.552;-122.600;2023-05-07T11:36:53;4.03;;;2.43;;
1360;SDS011;674;45.552;-122.600;2023-05-07T11:39:41;4.30;;;2.53;;
1360;SDS011;674;45.552;-122.600;2023-05-07T11:44:56;5.53;;;2.73;;
1360;SDS011;674;45.552;-122.600;2023-05-07T11:47:25;7.23;;;2.97;;
1360;SDS011;674;45.552;-122.600;2023-05-07T11:49:57;4.70;;;2.67;;
1360;SDS011;674;45.552;-122.600;2023-05-07T11:52:34;4.30;;;2.67;;
1360;SDS011;674;45.552;-122.600;2023-05-07T11:55:03;6.40;;;3.20;;
1360;SDS011;674;45.552;-122.600;2023-05-07T11:57:32;9.87;;;2.90;;
1360;SDS011;674;45.552;-122.600;2023-05-07T12:00:02;5.27;;;2.70;;
1360;SDS011;674;45.552;-122.600;2023-05-07T12:02:31;5.70;;;2.47;;
1360;SDS011;674;45.552;-122.600;2023-05-07T12:05:02;5.97;;;3.20;;
1360;SDS011;674;45.552;-122.600;2023-05-07T12:07:32;5.70;;;2.40;;
1360;SDS011;674;45.552;-122.600;2023-05-07T12:10:10;14.87;;;3.60;;
1360;SDS011;674;45.552;-122.600;2023-05-07T12:12:41;4.30;;;3.07;;
1360;SDS011;674;45.552;-122.600;2023-05-07T12:15:16;4.40;;;2.67;;
1360;SDS011;674;45.552;-122.600;2023-05-07T12:17:45;4.40;;;2.80;;
1360;SDS011;674;45.552;-122.600;2023-05-07T12:20:13;6.50;;;2.87;;
1360;SDS011;674;45.552;-122.600;2023-05-07T12:22:41;3.90;;;2.90;;
1360;SDS011;674;45.552;-122.600;2023-05-07T12:25:10;6.23;;;2.90;;
1360;SDS011;674;45.552;-122.600;2023-05-07T12:27:40;6.03;;;2.90;;
1360;SDS011;674;45.552;-122.600;2023-05-07T12:30:09;4.93;;;3.10;;
1360;SDS011;674;45.552;-122.600;2023-05-07T12:32:39;5.30;;;2.87;;
1360;SDS011;674;45.552;-122.600;2023-05-07T12:35:07;4.57;;;2.47;;
1360;SDS011;674;45.552;-122.600;2023-05-07T12:37:36;5.57;;;3.10;;
1360;SDS011;674;45.552;-122.600;2023-05-07T12:40:08;9.93;;;3.50;;
1360;SDS011;674;45.552;-122.600;2023-05-07T12:42:39;6.40;;;2.87;;
1360;SDS011;674;45.552;-122.600;2023-05-07T12:47:46;5.90;;;2.97;;
1360;SDS011;674;45.552;-122.600;2023-05-07T12:50:15;6.70;;;2.83;;
1360;SDS011;674;45.552;-122.600;2023-05-07T12:52:44;4.60;;;2.53;;
1360;SDS011;674;45.552;-122.600;2023-05-07T12:55:14;4.27;;;3.10;;
1360;SDS011;674;45.552;-122.600;2023-05-07T12:57:50;5.63;;;3.00;;
1360;SDS011;674;45.552;-122.600;2023-05-07T13:00:38;8.63;;;3.17;;
1360;SDS011;674;45.552;-122.600;2023-05-07T13:03:06;6.07;;;3.10;;
1360;SDS011;674;45.552;-122.600;2023-05-07T13:05:35;6.63;;;2.87;;
1360;SDS011;674;45.552;-122.600;2023-05-07T13:08:03;4.73;;;2.70;;
1360;SDS011;674;45.552;-122.600;2023-05-07T13:10:32;4.33;;;2.90;;
1360;SDS011;674;45.552;-122.600;2023-05-07T13:13:01;4.30;;;2.60;;
1360;SDS011;674;45.552;-122.600;2023-05-07T13:15:30;3.97;;;2.83;;
1360;SDS011;674;45.552;-122.600;2023-05-07T13:17:58;4.10;;;2.80;;
1360;SDS011;674;45.552;-122.600;2023-05-07T13:20:27;7.60;;;3.27;;
1360;SDS011;674;45.552;-122.600;2023-05-07T13:22:55;4.40;;;3.17;;
1360;SDS011;674;45.552;-122.600;2023-05-07T13:25:24;7.43;;;2.90;;
1360;SDS011;674;45.552;-122.600;2023-05-07T13:27:52;5.67;;;2.90;;
1360;SDS011;674;45.552;-122.600;2023-05-07T13:30:35;6.67;;;3.80;;
1360;SDS011;674;45.552;-122.600;2023-05-07T13:33:04;7.33;;;3.43;;
1360;SDS011;674;45.552;-122.600;2023-05-07T13:35:33;7.33;;;3.23;;
1360;SDS011;674;45.552;-122.600;2023-05-07T13:38:01;4.33;;;3.03;;
1360;SDS011;674;45.552;-122.600;2023-05-07T13:40:30;4.40;;;2.40;;
1360;SDS011;674;45.552;-122.600;2023-05-07T13:42:58;6.13;;;3.90;;
1360;SDS011;674;45.552;-122.600;2023-05-07T13:45:29;5.43;;;3.20;;
1360;SDS011;674;45.552;-122.600;2023-05-07T13:47:57;5.83;;;3.10;;
1360;SDS011;674;45.552;-122.600;2023-05-07T13:50:26;8.37;;;3.30;;
1360;SDS011;674;45.552;-122.600;2023-05-07T13:52:56;5.77;;;3.30;;
1360;SDS011;674;45.552;-122.600;2023-05-07T13:55:25;5.40;;;3.00;;
1360;SDS011;674;45.552;-122.600;2023-05-07T13:57:56;4.90;;;3.00;;
1360;SDS011;674;45.552;-122.600;2023-05-07T14:00:32;4.93;;;3.23;;
1360;SDS011;674;45.552;-122.600;2023-05-07T14:03:01;6.20;;;3.33;;
1360;SDS011;674;45.552;-122.600;2023-05-07T14:05:31;5.17;;;3.10;;
1360;SDS011;674;45.552;-122.600;2023-05-07T14:08:00;7.00;;;2.80;;
1360;SDS011;674;45.552;-122.600;2023-05-07T14:10:28;5.80;;;3.10;;
1360;SDS011;674;45.552;-122.600;2023-05-07T14:12:57;5.43;;;3.27;;
1360;SDS011;674;45.552;-122.600;2023-05-07T14:15:26;6.43;;;3.20;;
1360;SDS011;674;45.552;-122.600;2023-05-07T14:17:54;3.13;;;2.63;;
1360;SDS011;674;45.552;-122.600;2023-05-07T14:20:22;6.17;;;3.37;;
1360;SDS011;674;45.552;-122.600;2023-05-07T14:22:51;4.23;;;3.13;;
1360;SDS011;674;45.552;-122.600;2023-05-07T14:25:21;5.67;;;2.83;;
1360;SDS011;674;45.552;-122.600;2023-05-07T14:27:49;4.47;;;2.73;;
1360;SDS011;674;45.552;-122.600;2023-05-07T14:30:17;5.70;;;2.60;;
1360;SDS011;674;45.552;-122.600;2023-05-07T14:32:46;4.67;;;2.50;;
1360;SDS011;674;45.552;-122.600;2023-05-07T14:35:15;8.00;;;2.90;;
1360;SDS011;674;45.552;-122.600;2023-05-07T14:37:43;6.87;;;2.87;;
1360;SDS011;674;45.552;-122.600;2023-05-07T14:40:12;7.63;;;3.30;;
1360;SDS011;674;45.552;-122.600;2023-05-07T14:42:41;4.80;;;2.37;;
1360;SDS011;674;45.552;-122.600;2023-05-07T14:45:10;3.70;;;2.50;;
1360;SDS011;674;45.552;-122.600;2023-05-07T14:47:40;4.20;;;2.53;;
1360;SDS011;674;45.552;-122.600;2023-05-07T14:50:09;6.40;;;3.20;;
1360;SDS011;674;45.552;-122.600;2023-05-07T14:52:37;5.50;;;2.50;;
1360;SDS011;674;45.552;-122.600;2023-05-07T14:55:05;3.83;;;2.60;;
1360;SDS011;674;45.552;-122.600;2023-05-07T14:57:34;5.00;;;2.37;;
1360;SDS011;674;45.552;-122.600;2023-05-07T15:00:03;3.50;;;1.93;;
1360;SDS011;674;45.552;-122.600;2023-05-07T15:02:32;9.33;;;2.97;;
1360;SDS011;674;45.552;-122.600;2023-05-07T15:05:01;4.30;;;2.43;;
1360;SDS011;674;45.552;-122.600;2023-05-07T15:07:30;6.43;;;2.70;;
1360;SDS011;674;45.552;-122.600;2023-05-07T15:10:01;4.97;;;2.90;;
1360;SDS011;674;45.552;-122.600;2023-05-07T15:12:29;3.43;;;2.10;;
1360;SDS011;674;45.552;-122.600;2023-05-07T15:14:58;2.70;;;1.90;;
1360;SDS011;674;45.552;-122.600;2023-05-07T15:17:26;4.63;;;2.10;;